Αρχική σελίδα
METAR-TAF:

METAR-TAF

Αεροδρόμια :

Διεθνής Κρατικός Αερολιμένας Θεσσαλονίκης «Μακεδονία»

Θεσσαλονίκη, Ελλάδα

γεωγραφικό πλάτος: 40-31N, γεωγραφικό μήκος: 022-58E, υψόμετρο: 8 μ

Παρών καιρός

Η αναφορά έγινε 28 λεπτά πριν, στις 05:50 UTC
Άνεμος 4 kt από Α/NA
Θερμοκρασία 0°C
Υγρασία 80%
Πίεση 1016 hPa
Ορατότητα 10 χλμ και άνω
Λίγα νέφη σε ύψος 2000 πόδια

METAR: LGTS 010550Z 12004KT 9999 FEW020 00/M03 Q1016 NOSIG

Χρόνος: 08:18 (06:18 UTC)

Πρόγνωση Καιρού

Η αναφορά έγινε 1 ώρα και 18 λεπτά πριν, στις 05:00 UTC
Η πρόγνωση ισχύει από τις 01 στις 06 UTC έως τις 02 στις 06 UTC
Άνεμος 3 kt από μεταβλητές κατευθύνσεις
Ορατότητα 10 χλμ και άνω
Λίγα νέφη σε ύψος 2500 πόδια
Προσωρινά
από 02 στις 00 UTC έως τις 02 στις 06 UTC
Λίγα νέφη σε ύψος 800 πόδια
Διάσπαρτα νέφη σε ύψος 2500 πόδια

TAF: LGTS 010500Z 0106/0206 VRB03KT 9999 FEW025 TEMPO 0200/0206 FEW008 SCT025

Μετεωρολογικές αναφορές και προγνώσεις για περισσότερα από 4000 αεροδρόμια (δελτία METAR και TAF).

Οι διαθέσιμοι σταθμοί απεικονίζονται στο χάρτη με κίτρινες και κόκκινες κουκκίδες.

Μετακινήστε το ποντίκι πάνω από τις κουκκίδες για να δείτε το όνομα του σταθμού.

Στη συνέχεια, κάντε κλικ για να δείτε τις μετεωρολογικές αναφορές και τις προγνώσεις καιρού.

Για να αλλάξετε το χάρτη: κάντε κλικ στα πράσινα κουμπιά με τον μαύρο σταυρό για να ζουμάρετε, στο πράσινο κουμπί με την παύλα για να αφαιρέσετε το ζουμ ή στα πράσινα βέλη για να αντιπαραβάλλετε χάρτες.


METAR-TAF: